createdAt,value
2019-04-14T00:02:22.818Z,5.00
2019-04-14T00:04:53.014Z,4.37
2019-04-14T00:07:23.087Z,3.87
2019-04-14T00:09:52.127Z,4.40
2019-04-14T00:12:21.080Z,4.00
2019-04-14T00:14:51.180Z,4.27
2019-04-14T00:17:21.532Z,4.00
2019-04-14T00:19:50.687Z,3.33
2019-04-14T00:22:20.533Z,3.73
2019-04-14T00:24:51.008Z,3.07
2019-04-14T00:27:21.229Z,3.13
2019-04-14T00:29:50.422Z,3.07
2019-04-14T00:32:20.397Z,3.17
2019-04-14T00:35:03.910Z,3.37
2019-04-14T00:37:38.640Z,3.40
2019-04-14T00:40:12.876Z,3.10
2019-04-14T00:42:43.464Z,3.23
2019-04-14T00:45:13.934Z,3.37
2019-04-14T00:47:59.719Z,3.20
2019-04-14T00:50:21.105Z,2.77
2019-04-14T00:52:50.179Z,3.33
2019-04-14T00:55:20.275Z,3.90
2019-04-14T00:57:50.902Z,3.90
2019-04-14T01:00:20.757Z,3.07
2019-04-14T01:02:51.538Z,3.23
2019-04-14T01:05:21.743Z,3.77
2019-04-14T01:07:50.742Z,3.50
2019-04-14T01:10:19.685Z,2.80
2019-04-14T01:12:49.566Z,3.67
2019-04-14T01:15:20.011Z,3.60
2019-04-14T01:17:49.153Z,3.77
2019-04-14T01:20:18.918Z,3.27
2019-04-14T01:22:48.861Z,3.73
2019-04-14T01:25:17.893Z,3.20
2019-04-14T01:27:47.426Z,4.70
2019-04-14T01:30:17.553Z,3.47
2019-04-14T01:32:47.852Z,3.40
2019-04-14T01:35:17.991Z,3.47
2019-04-14T01:37:47.046Z,3.93
2019-04-14T01:40:16.411Z,3.87
2019-04-14T01:42:46.313Z,3.70
2019-04-14T01:45:17.005Z,3.63
2019-04-14T01:47:46.750Z,4.07
2019-04-14T01:50:17.342Z,3.47
2019-04-14T01:52:50.251Z,3.87
2019-04-14T01:55:20.734Z,3.60
2019-04-14T01:58:10.010Z,3.90
2019-04-14T02:00:44.406Z,3.70
2019-04-14T02:03:13.470Z,4.00
2019-04-14T02:05:43.168Z,3.70
2019-04-14T02:08:13.086Z,8.43
2019-04-14T02:10:43.495Z,3.67
2019-04-14T02:13:13.581Z,3.77
2019-04-14T02:15:42.585Z,4.20
2019-04-14T02:18:12.128Z,4.13
2019-04-14T02:20:42.467Z,3.77
2019-04-14T02:23:12.538Z,3.50
2019-04-14T02:25:42.780Z,3.80
2019-04-14T02:28:11.871Z,3.40
2019-04-14T02:30:49.513Z,4.07
2019-04-14T02:33:40.329Z,4.17
2019-04-14T02:36:14.057Z,3.97
2019-04-14T02:38:51.164Z,3.50
2019-04-14T02:41:19.668Z,3.67
2019-04-14T02:43:58.422Z,3.73
2019-04-14T02:46:10.568Z,3.73
2019-04-14T02:51:14.370Z,4.07
2019-04-14T02:54:43.653Z,4.00
2019-04-14T02:56:16.411Z,3.40
2019-04-14T02:58:50.047Z,3.77
2019-04-14T03:01:23.127Z,4.23
2019-04-14T03:03:43.617Z,4.30
2019-04-14T03:06:12.748Z,3.60
2019-04-14T03:08:52.071Z,4.30
2019-04-14T03:11:20.755Z,4.37
2019-04-14T03:13:53.929Z,4.07
2019-04-14T03:16:27.742Z,3.67
2019-04-14T03:19:06.648Z,4.03
2019-04-14T03:21:49.116Z,4.20
2019-04-14T03:24:23.201Z,4.03
2019-04-14T03:26:59.366Z,4.57
2019-04-14T03:29:34.770Z,3.90
2019-04-14T03:32:23.270Z,4.23
2019-04-14T03:34:39.323Z,4.27
2019-04-14T03:39:40.400Z,3.93
2019-04-14T03:42:13.177Z,3.87
2019-04-14T03:44:41.365Z,4.30
2019-04-14T03:47:18.396Z,4.10
2019-04-14T03:49:45.130Z,3.80
2019-04-14T03:52:35.488Z,3.97
2019-04-14T03:54:36.704Z,3.93
2019-04-14T03:56:53.599Z,4.70
2019-04-14T03:59:23.936Z,4.27
2019-04-14T04:01:54.494Z,4.33
2019-04-14T04:04:24.817Z,3.80
2019-04-14T04:06:55.410Z,4.20
2019-04-14T04:09:26.118Z,3.97
2019-04-14T04:11:56.218Z,3.83
2019-04-14T04:14:25.347Z,3.63
2019-04-14T04:16:59.481Z,3.47
2019-04-14T04:19:38.968Z,3.43
2019-04-14T04:22:15.274Z,3.20
2019-04-14T04:24:45.801Z,3.77
2019-04-14T04:27:22.270Z,3.40
2019-04-14T04:30:08.098Z,3.50
2019-04-14T04:32:38.604Z,3.70
2019-04-14T04:35:12.927Z,4.07
2019-04-14T04:37:43.689Z,3.70
2019-04-14T04:40:20.285Z,3.73
2019-04-14T04:42:50.410Z,3.73
2019-04-14T04:45:19.843Z,4.20
2019-04-14T04:47:49.219Z,3.93
2019-04-14T04:50:19.235Z,3.63
2019-04-14T04:52:48.270Z,3.80
2019-04-14T04:55:17.731Z,4.00
2019-04-14T04:57:48.027Z,4.53
2019-04-14T05:00:17.880Z,4.37
2019-04-14T05:02:46.946Z,4.07
2019-04-14T05:05:51.909Z,5.03
2019-04-14T05:08:21.715Z,4.17
2019-04-14T05:11:09.693Z,4.00
2019-04-14T05:13:40.240Z,4.20
2019-04-14T05:16:10.657Z,4.30
2019-04-14T05:18:39.900Z,4.00
2019-04-14T05:21:10.272Z,3.43
2019-04-14T05:23:39.388Z,3.80
2019-04-14T05:26:09.180Z,4.10
2019-04-14T05:28:39.530Z,4.33
2019-04-14T05:31:09.723Z,3.90
2019-04-14T05:33:38.856Z,5.03
2019-04-14T05:36:08.554Z,3.73
2019-04-14T05:38:38.531Z,4.03
2019-04-14T05:41:07.655Z,3.80
2019-04-14T05:43:43.838Z,4.60
2019-04-14T05:46:07.732Z,3.90
2019-04-14T05:48:37.992Z,4.10
2019-04-14T05:51:07.112Z,3.80
2019-04-14T05:53:37.235Z,4.00
2019-04-14T05:56:06.257Z,3.53
2019-04-14T05:58:36.085Z,3.10
2019-04-14T06:01:06.945Z,4.13
2019-04-14T06:03:36.396Z,3.30
2019-04-14T06:06:05.554Z,3.80
2019-04-14T06:08:34.574Z,3.73
2019-04-14T06:11:03.545Z,3.30
2019-04-14T06:13:32.618Z,3.57
2019-04-14T06:16:03.127Z,3.63
2019-04-14T06:18:32.157Z,4.63
2019-04-14T06:21:01.044Z,3.80
2019-04-14T06:23:30.026Z,3.60
2019-04-14T06:25:58.982Z,4.43
2019-04-14T06:28:27.942Z,3.77
2019-04-14T06:31:14.933Z,3.33
2019-04-14T06:33:52.149Z,4.13
2019-04-14T06:36:22.708Z,3.60
2019-04-14T06:38:53.189Z,3.53
2019-04-14T06:41:22.150Z,3.67
2019-04-14T06:43:51.036Z,3.77
2019-04-14T06:46:19.931Z,3.90
2019-04-14T06:48:48.874Z,3.90
2019-04-14T06:51:17.766Z,3.47
2019-04-14T06:53:46.702Z,3.90
2019-04-14T06:56:17.435Z,3.63
2019-04-14T06:58:46.400Z,3.20
2019-04-14T07:01:15.337Z,3.27
2019-04-14T07:03:44.326Z,3.30
2019-04-14T07:06:13.292Z,3.90
2019-04-14T07:08:43.534Z,3.53
2019-04-14T07:11:12.436Z,3.60
2019-04-14T07:13:41.390Z,3.80
2019-04-14T07:16:10.555Z,4.60
2019-04-14T07:18:39.542Z,3.77
2019-04-14T07:21:08.506Z,4.23
2019-04-14T07:23:37.432Z,4.37
2019-04-14T07:26:06.364Z,3.50
2019-04-14T07:28:35.348Z,3.37
2019-04-14T07:31:17.346Z,3.60
2019-04-14T07:34:04.341Z,3.70
2019-04-14T07:36:44.003Z,3.37
2019-04-14T07:39:20.299Z,3.50
2019-04-14T07:41:50.894Z,3.33
2019-04-14T07:44:27.241Z,3.63
2019-04-14T07:46:57.689Z,3.07
2019-04-14T07:49:28.274Z,3.30
2019-04-14T07:52:01.506Z,3.73
2019-04-14T07:54:43.800Z,3.43
2019-04-14T07:57:26.552Z,3.77
2019-04-14T08:00:03.002Z,3.70
2019-04-14T08:02:48.566Z,3.50
2019-04-14T08:05:19.139Z,3.60
2019-04-14T08:07:48.952Z,3.17
2019-04-14T08:10:17.978Z,3.63
2019-04-14T08:12:46.916Z,3.30
2019-04-14T08:15:16.030Z,3.80
2019-04-14T08:17:45.016Z,3.70
2019-04-14T08:20:26.525Z,3.60
2019-04-14T08:22:44.816Z,3.80
2019-04-14T08:25:13.789Z,3.50
2019-04-14T08:27:42.750Z,3.80
2019-04-14T08:30:11.778Z,3.87
2019-04-14T08:32:40.723Z,3.63
2019-04-14T08:35:09.891Z,3.97
2019-04-14T08:37:38.777Z,3.77
2019-04-14T08:40:07.825Z,3.50
2019-04-14T08:42:44.311Z,3.67
2019-04-14T08:45:16.466Z,3.80
2019-04-14T08:47:54.097Z,3.83
2019-04-14T08:50:25.197Z,3.63
2019-04-14T08:53:04.975Z,3.40
2019-04-14T08:55:35.776Z,4.20
2019-04-14T08:58:21.217Z,3.50
2019-04-14T09:00:54.678Z,3.70
2019-04-14T09:03:28.155Z,3.37
2019-04-14T09:06:15.280Z,3.90
2019-04-14T09:08:54.324Z,3.67
2019-04-14T09:11:34.040Z,3.90
2019-04-14T09:14:03.011Z,4.33
2019-04-14T09:16:31.947Z,3.87
2019-04-14T09:19:07.524Z,4.20
2019-04-14T09:21:31.456Z,4.67
2019-04-14T09:24:00.351Z,4.17
2019-04-14T09:26:29.280Z,4.53
2019-04-14T09:28:58.193Z,4.57
2019-04-14T09:31:27.124Z,4.57
2019-04-14T09:33:56.014Z,4.67
2019-04-14T09:36:24.960Z,4.47
2019-04-14T09:38:53.840Z,4.30
2019-04-14T09:41:22.782Z,4.07
2019-04-14T09:43:51.670Z,4.20
2019-04-14T09:46:20.634Z,4.20
2019-04-14T09:48:49.525Z,4.37
2019-04-14T09:51:18.451Z,4.60
2019-04-14T09:53:47.343Z,4.43
2019-04-14T09:56:16.289Z,4.93
2019-04-14T09:58:45.343Z,4.93
2019-04-14T10:01:14.382Z,6.03
2019-04-14T10:03:43.272Z,4.97
2019-04-14T10:06:12.338Z,4.70
2019-04-14T10:08:41.270Z,5.00
2019-04-14T10:11:12.804Z,5.23
2019-04-14T10:13:43.192Z,5.03
2019-04-14T10:16:12.165Z,5.13
2019-04-14T10:18:42.178Z,5.43
2019-04-14T10:21:17.419Z,5.03
2019-04-14T10:23:41.656Z,5.43
2019-04-14T10:26:10.563Z,5.27
2019-04-14T10:28:39.533Z,4.80
2019-04-14T10:31:08.841Z,5.33
2019-04-14T10:33:37.773Z,5.97
2019-04-14T10:36:06.669Z,5.40
2019-04-14T10:38:35.613Z,5.40
2019-04-14T10:41:04.605Z,5.43
2019-04-14T10:43:33.547Z,5.20
2019-04-14T10:46:02.432Z,5.10
2019-04-14T10:48:31.382Z,5.57
2019-04-14T10:51:00.262Z,5.80
2019-04-14T10:53:29.189Z,5.50
2019-04-14T10:55:58.090Z,5.70
2019-04-14T10:58:27.017Z,5.53
2019-04-14T11:00:55.917Z,5.87
2019-04-14T11:03:24.834Z,5.67
2019-04-14T11:05:58.277Z,5.60
2019-04-14T11:08:27.230Z,5.43
2019-04-14T11:10:56.132Z,5.83
2019-04-14T11:13:25.073Z,5.40
2019-04-14T11:15:53.968Z,5.87
2019-04-14T11:18:22.919Z,5.73
2019-04-14T11:20:51.810Z,8.23
2019-04-14T11:23:20.744Z,6.07
2019-04-14T11:25:49.699Z,5.80
2019-04-14T11:28:18.675Z,5.67
2019-04-14T11:30:47.563Z,5.57
2019-04-14T11:33:18.079Z,6.40
2019-04-14T11:35:48.565Z,6.00
2019-04-14T11:38:28.262Z,6.60
2019-04-14T11:40:58.741Z,8.27
2019-04-14T11:43:27.666Z,6.97
2019-04-14T11:45:56.666Z,6.07
2019-04-14T11:48:25.609Z,6.80
2019-04-14T11:50:54.515Z,5.83
2019-04-14T11:53:23.445Z,5.90
2019-04-14T11:55:52.350Z,5.83
2019-04-14T11:58:21.673Z,5.07
2019-04-14T12:01:07.000Z,5.73
2019-04-14T12:03:39.963Z,5.33
2019-04-14T12:06:16.127Z,5.80
2019-04-14T12:08:46.637Z,5.70
2019-04-14T12:11:15.537Z,5.50
2019-04-14T12:13:44.433Z,5.50
2019-04-14T12:16:13.398Z,5.27
2019-04-14T12:18:42.298Z,5.17
2019-04-14T12:21:11.235Z,4.87
2019-04-14T12:23:40.156Z,5.37
2019-04-14T12:26:09.463Z,4.83
2019-04-14T12:28:38.403Z,5.43
2019-04-14T12:31:08.732Z,5.43
2019-04-14T12:33:37.677Z,5.20
2019-04-14T12:36:09.585Z,6.10
2019-04-14T12:38:38.540Z,5.57
2019-04-14T12:41:10.407Z,5.33
2019-04-14T12:43:43.931Z,5.33
2019-04-14T12:46:29.772Z,4.80
2019-04-14T12:49:02.995Z,4.50
2019-04-14T12:51:39.492Z,4.80
2019-04-14T12:54:08.389Z,4.40
2019-04-14T12:56:37.330Z,4.20
2019-04-14T12:59:07.805Z,4.57
2019-04-14T13:01:38.314Z,4.20
2019-04-14T13:04:07.206Z,5.03
2019-04-14T13:06:36.194Z,4.60
2019-04-14T13:09:06.476Z,4.37
2019-04-14T13:11:35.411Z,4.80
2019-04-14T13:14:04.302Z,4.87
2019-04-14T13:16:33.253Z,5.40
2019-04-14T13:19:02.154Z,5.23
2019-04-14T13:21:31.091Z,6.00
2019-04-14T13:23:59.987Z,6.73
2019-04-14T13:26:28.922Z,4.30
2019-04-14T13:28:57.825Z,5.10
2019-04-14T13:31:26.843Z,5.70
2019-04-14T13:33:55.736Z,4.90
2019-04-14T13:36:24.673Z,4.83
2019-04-14T13:38:53.566Z,4.07
2019-04-14T13:41:22.542Z,4.50
2019-04-14T13:43:51.432Z,4.70
2019-04-14T13:46:20.367Z,4.50
2019-04-14T13:48:49.263Z,4.63
2019-04-14T13:51:18.200Z,3.43
2019-04-14T13:53:47.087Z,3.00
2019-04-14T13:56:16.023Z,3.33
2019-04-14T13:58:44.927Z,3.20
2019-04-14T14:01:13.902Z,3.90
2019-04-14T14:03:42.806Z,3.10
2019-04-14T14:06:11.695Z,2.97
2019-04-14T14:08:40.633Z,3.20
2019-04-14T14:11:27.388Z,3.17
2019-04-14T14:14:14.421Z,3.07
2019-04-14T14:16:51.099Z,3.30
2019-04-14T14:19:24.562Z,3.03
2019-04-14T14:22:04.345Z,3.07
2019-04-14T14:24:34.819Z,3.07
2019-04-14T14:27:04.860Z,3.33
2019-04-14T14:29:33.762Z,2.90
2019-04-14T14:32:04.277Z,3.20
2019-04-14T14:34:33.162Z,3.60
2019-04-14T14:37:02.106Z,3.37
2019-04-14T14:39:30.994Z,2.83
2019-04-14T14:41:59.918Z,2.90
2019-04-14T14:44:30.425Z,2.87
2019-04-14T14:47:00.909Z,2.87
2019-04-14T14:49:31.620Z,3.07
2019-04-14T14:52:08.056Z,2.80
2019-04-14T14:54:36.984Z,3.57
2019-04-14T14:57:05.869Z,3.10
2019-04-14T14:59:34.806Z,2.93
2019-04-14T15:02:03.697Z,3.50
2019-04-14T15:04:32.636Z,3.67
2019-04-14T15:07:01.533Z,4.53
2019-04-14T15:09:30.473Z,3.40
2019-04-14T15:11:59.361Z,3.30
2019-04-14T15:14:28.400Z,3.10
2019-04-14T15:16:57.290Z,3.00
2019-04-14T15:19:26.646Z,3.80
2019-04-14T15:21:55.535Z,3.23
2019-04-14T15:24:24.470Z,3.57
2019-04-14T15:26:53.373Z,3.90
2019-04-14T15:29:22.311Z,3.70
2019-04-14T15:31:51.202Z,3.53
2019-04-14T15:34:20.159Z,4.37
2019-04-14T15:36:49.057Z,3.10
2019-04-14T15:39:17.990Z,3.67
2019-04-14T15:41:46.884Z,3.63
2019-04-14T15:44:15.814Z,3.30
2019-04-14T15:46:44.709Z,3.40
2019-04-14T15:49:14.035Z,3.73
2019-04-14T15:51:42.923Z,3.93
2019-04-14T15:54:11.866Z,4.20
2019-04-14T15:57:00.539Z,3.40
2019-04-14T15:59:46.074Z,3.30
2019-04-14T16:02:32.693Z,3.57
2019-04-14T16:05:03.207Z,3.27
2019-04-14T16:07:48.986Z,3.13
2019-04-14T16:10:34.039Z,3.83
2019-04-14T16:13:10.628Z,4.17
2019-04-14T16:15:41.147Z,3.30
2019-04-14T16:18:27.584Z,3.70
2019-04-14T16:20:56.514Z,4.70
2019-04-14T16:23:25.419Z,5.00
2019-04-14T16:26:11.850Z,4.63
2019-04-14T16:28:45.229Z,3.70
2019-04-14T16:31:15.748Z,3.87
2019-04-14T16:34:02.748Z,4.17
2019-04-14T16:36:31.698Z,3.73
2019-04-14T16:39:00.590Z,4.63
2019-04-14T16:41:29.518Z,4.33
2019-04-14T16:43:58.416Z,5.00
2019-04-14T16:46:27.353Z,6.93
2019-04-14T16:48:56.252Z,5.83
2019-04-14T16:51:29.755Z,4.90
2019-04-14T16:54:03.217Z,7.23
2019-04-14T16:56:41.578Z,5.43
2019-04-14T16:59:11.559Z,4.90
2019-04-14T17:01:42.102Z,4.50
2019-04-14T17:04:11.030Z,3.90
2019-04-14T17:06:39.890Z,4.03
2019-04-14T17:09:08.861Z,3.83
2019-04-14T17:11:37.893Z,4.03
2019-04-14T17:14:08.358Z,4.50
2019-04-14T17:16:55.151Z,3.83
2019-04-14T17:19:28.348Z,3.97
2019-04-14T17:22:01.576Z,3.87
2019-04-14T17:24:34.822Z,4.10
2019-04-14T17:27:05.317Z,4.77
2019-04-14T17:29:41.511Z,3.93
2019-04-14T17:32:12.014Z,3.03
2019-04-14T17:34:58.643Z,3.57
2019-04-14T17:37:29.167Z,3.43
2019-04-14T17:39:59.634Z,5.67
2019-04-14T17:42:30.148Z,4.93
2019-04-14T17:45:09.605Z,4.80
2019-04-14T17:47:40.119Z,6.27
2019-04-14T17:50:13.826Z,5.13
2019-04-14T17:52:44.329Z,5.03
2019-04-14T17:55:24.022Z,5.37
2019-04-14T17:58:00.605Z,4.20
2019-04-14T18:00:42.917Z,3.50
2019-04-14T18:03:25.700Z,3.37
2019-04-14T18:05:56.180Z,3.77
2019-04-14T18:08:29.453Z,3.70
2019-04-14T18:10:59.933Z,3.97
2019-04-14T18:13:46.606Z,4.40
2019-04-14T18:16:20.063Z,4.60
2019-04-14T18:19:08.337Z,4.13
2019-04-14T18:21:37.228Z,3.57
2019-04-14T18:24:06.161Z,4.10
2019-04-14T18:26:35.580Z,4.00
2019-04-14T18:29:22.828Z,3.70
2019-04-14T18:31:53.328Z,3.40
2019-04-14T18:34:40.161Z,2.77
2019-04-14T18:37:22.733Z,3.43
2019-04-14T18:40:09.139Z,3.13
2019-04-14T18:42:48.441Z,2.93
2019-04-14T18:45:25.242Z,2.90
2019-04-14T18:47:55.714Z,2.43
2019-04-14T18:50:40.834Z,3.10
2019-04-14T18:53:14.270Z,2.80
2019-04-14T18:55:47.727Z,3.07
2019-04-14T18:58:18.212Z,2.23
2019-04-14T19:00:51.787Z,4.77
2019-04-14T19:03:20.683Z,3.13
2019-04-14T19:05:49.620Z,3.30
2019-04-14T19:08:18.531Z,3.33
2019-04-14T19:10:49.053Z,2.93
2019-04-14T19:13:19.517Z,3.10
2019-04-14T19:15:59.261Z,3.17
2019-04-14T19:18:32.457Z,3.20
2019-04-14T19:21:02.939Z,3.03
2019-04-14T19:23:31.876Z,3.23
2019-04-14T19:26:00.765Z,2.70
2019-04-14T19:28:29.711Z,3.00
2019-04-14T19:30:58.606Z,2.87
2019-04-14T19:33:27.535Z,3.10
2019-04-14T19:35:56.490Z,3.17
2019-04-14T19:38:25.435Z,3.90
2019-04-14T19:40:54.316Z,3.30
2019-04-14T19:43:24.340Z,3.27
2019-04-14T19:45:56.277Z,2.63
2019-04-14T19:48:24.021Z,2.77
2019-04-14T19:50:52.914Z,3.10
2019-04-14T19:53:21.845Z,3.60
2019-04-14T19:55:51.572Z,2.97
2019-04-14T19:58:20.500Z,2.77
2019-04-14T20:00:49.412Z,3.20
2019-04-14T20:03:18.429Z,3.17
2019-04-14T20:05:47.326Z,2.70
2019-04-14T20:08:16.258Z,3.10
2019-04-14T20:10:45.149Z,3.53
2019-04-14T20:13:14.090Z,3.10
2019-04-14T20:16:00.911Z,2.77
2019-04-14T20:18:31.429Z,3.27
2019-04-14T20:21:18.650Z,3.13
2019-04-14T20:23:54.960Z,3.40
2019-04-14T20:26:40.458Z,3.10
2019-04-14T20:29:10.988Z,2.53
2019-04-14T20:31:41.459Z,2.57
2019-04-14T20:34:10.395Z,3.23
2019-04-14T20:36:39.310Z,2.50
2019-04-14T20:39:10.317Z,2.90
2019-04-14T20:41:39.423Z,2.97
2019-04-14T20:44:08.770Z,2.40
2019-04-14T20:46:37.674Z,2.87
2019-04-14T20:49:06.820Z,2.93
2019-04-14T20:51:35.815Z,2.80
2019-04-14T20:54:04.812Z,2.80
2019-04-14T20:56:33.742Z,2.30
2019-04-14T20:59:02.724Z,2.83
2019-04-14T21:01:33.391Z,2.60
2019-04-14T21:04:04.456Z,2.93
2019-04-14T21:06:51.814Z,2.80
2019-04-14T21:09:25.657Z,2.97
2019-04-14T21:12:14.204Z,2.90
2019-04-14T21:14:48.215Z,2.80
2019-04-14T21:17:25.202Z,2.53
2019-04-14T21:19:58.510Z,3.17
2019-04-14T21:22:40.805Z,2.00
2019-04-14T21:25:15.172Z,2.70
2019-04-14T21:27:51.703Z,3.00
2019-04-14T21:30:22.233Z,3.30
2019-04-14T21:32:55.497Z,2.83
2019-04-14T21:35:28.784Z,3.20
2019-04-14T21:37:59.247Z,3.20
2019-04-14T21:40:29.769Z,3.33
2019-04-14T21:42:58.673Z,3.17
2019-04-14T21:45:27.662Z,3.47
2019-04-14T21:47:57.279Z,3.20
2019-04-14T21:50:26.173Z,3.13
2019-04-14T21:52:55.122Z,3.47
2019-04-14T21:55:26.275Z,3.37
2019-04-14T21:58:01.559Z,3.80
2019-04-14T22:01:09.909Z,3.80
2019-04-14T22:03:46.118Z,3.77
2019-04-14T22:06:19.629Z,3.23
2019-04-14T22:08:50.339Z,3.47
2019-04-14T22:11:24.633Z,3.17
2019-04-14T22:13:53.562Z,3.83
2019-04-14T22:16:22.658Z,3.23
2019-04-14T22:18:51.648Z,3.40
2019-04-14T22:21:20.637Z,3.23
2019-04-14T22:24:00.370Z,3.17
2019-04-14T22:26:26.082Z,3.20
2019-04-14T22:28:50.952Z,3.63
2019-04-14T22:31:19.966Z,3.70
2019-04-14T22:33:48.914Z,3.33
2019-04-14T22:36:17.822Z,3.63
2019-04-14T22:38:46.781Z,3.60
2019-04-14T22:41:15.674Z,3.20
2019-04-14T22:43:44.620Z,3.37
2019-04-14T22:46:13.615Z,3.47
2019-04-14T22:48:42.548Z,3.20
2019-04-14T22:51:11.547Z,3.13
2019-04-14T22:53:40.482Z,3.30
2019-04-14T22:56:09.371Z,3.10
2019-04-14T22:58:39.044Z,3.47
2019-04-14T23:01:12.372Z,3.53
2019-04-14T23:03:48.725Z,3.80
2019-04-14T23:06:21.923Z,2.77
2019-04-14T23:08:52.425Z,3.23
2019-04-14T23:11:41.296Z,3.50
2019-04-14T23:14:11.821Z,2.87
2019-04-14T23:16:58.219Z,3.60
2019-04-14T23:19:45.942Z,3.67
2019-04-14T23:22:16.128Z,3.20
2019-04-14T23:24:48.687Z,2.83
2019-04-14T23:27:17.581Z,3.13
2019-04-14T23:29:46.526Z,2.83
2019-04-14T23:32:15.519Z,3.53
2019-04-14T23:34:44.453Z,3.10
2019-04-14T23:37:13.356Z,3.10
2019-04-14T23:39:42.289Z,3.10
2019-04-14T23:42:11.182Z,3.20
2019-04-14T23:44:40.120Z,2.73
2019-04-14T23:47:09.012Z,3.10
2019-04-14T23:49:37.957Z,3.13
2019-04-14T23:52:07.222Z,3.43
2019-04-14T23:54:36.244Z,3.70
2019-04-14T23:57:06.530Z,5.73
2019-04-14T23:59:35.881Z,3.50
